Relevés horaires Bierset (Belgique)


Relevés horaires à Bierset - Lundi 22 Avr. 2019
Heure UTC1 Température [°C] Vent [km/h] Hum. [%] Pres.4 [hPa] Visi. [Km] Nébu. [octa] Préc.5 [mm] Cond.
2m. Res. Ros. Dir.2 Vit. Moy. Raf.3
23:00 15.6 15.6 3.2 E 7.4 7.4 11.1 43 1002.2(-1.2/3h) 40 1/8 -- --
22:00 16.8 16.8 3.8 E 7.4 9.3 14.8 42 1002.8(-0.6/3h) 40 4/8 -- --
21:00 18.7 18.7 2.7 E 7.4 7.4 14.8 34 1003(0.0/3h) 40 4/8 -- --
20:00 19.8 19.8 1.4 E 5.6 7.4 13.0 29 1003.2(-0.1/3h) 40 4/8 -- --
19:00 20.8 20.8 2.1 E 5.6 7.4 14.8 29 1003.1(-0.5/3h) 40 4/8 -- --
18:00 22.3 22.3 0.3 ESE 7.4 11.1 18.5 23 1002.8(-1.4/3h) 30 4/8 0/12h
--
17:00 23.2 23.2 3.0 E 7.4 9.3 18.5 27 1003(-1.9/3h) 30 4/8 -- --
16:00 24.1 24.1 1.3 ESE 7.4 11.1 16.7 22 1003.4(-2.4/3h) 30 4/8 -- --
15:00 23.8 23.8 2.1 E 11.1 11.1 18.5 24 1004.2(-2.1/3h) 30 5/8 -- --
14:00 23.9 23.9 -1.5 ESE 11.1 11.1 18.5 18 1004.9(-2.2/3h) 30 6/8 -- --
13:00 23.8 23.8 0.7 ESE 11.1 11.1 18.5 22 1005.8(-2.4/3h) 30 6/8 -- --
12:00 23.3 23.3 2.5 ESE 7.4 11.1 31.5 26 1006.4(-2.5/3h) 30 4/8 0/6h
--
11:00 22.4 22.4 -0.5 ESE 11.1 11.1 31.5 22 1007.4(-2.1/3h) 30 2/8 -- --
10:00 22.1 22.1 -0.7 ESE 9.3 11.1 22.2 22 1008.3(-1.5/3h) 30 2/8 -- --
09:00 20.8 20.8 4.5 NNO 3.7 7.4 20.4 34 1009.1(-0.9/3h) 30 1/8 -- --
08:00 18.0 18.0 2.3 SE 5.6 7.4 9.3 35 1009.8(-0.7/3h) 30 3/8 -- --
07:00 15.8 15.8 2.1 SE 5.6 7.4 20.4 40 1010.4(-0.6/3h) 30 5/8 -- --
06:00 14.3 14.3 1.0 ESE 5.6 7.4 18.5 40 1010.6(-1.3/3h) 25 6/8 0/12h
--
05:00 13.5 13.5 1.0 ESE 5.6 7.4 13.0 42 1010.8(-1.8/3h) 40 5/8 -- --
04:00 14.2 14.2 0.2 ESE 5.6 5.6 14.8 38 1011.2(-2.0/3h) 40 4/8 -- --
03:00 14.1 14.1 0.9 ESE 5.6 7.4 18.5 41 1011.9(-1.8/3h) 35 2/8 -- --
02:00 14.4 14.4 1.4 ESE 5.6 5.6 11.1 41 1012.6(-1.7/3h) 35 2/8 -- --
01:00 14.9 14.9 1.6 ESE 5.6 7.4 13.0 40 1013.1(-1.6/3h) 35 0/8 -- --
00:00 15.0 15.0 2.7 ESE 5.6 9.3 18.5 43 1013.7(-1.3/3h) 35 0/8 0/6h
0/24h
--

1 Coordinated Universal Time. Actuellement il est 18:00 locale et 16:00 UTC.

2 Le vent souffle depuis la direction indiquée vers la direction oposée.

3 Les rafales max. sont disponible 40 min après l'heure du relevé.

4 Pour les stations d'altitude (plus de 600m) le géopotentiel du niveau le plus proche de la pression obligatoire est indiqué.

5 Les stations disposant d'un diffuseur peuvent indiquer "trace". Cela signifie que des précipitations ont touchés le sol mais que la quantité est inférieure à 0.1 mm.

Récapitulatif de la journée
Température [°C] Vent [km/h] Ensoleillement4 [h] Precipitations totale5 [mm] Pression [Hpa]
Min1 Max.2 Moy.3 Max. Min Max.
13.1 24.4 8.7 31.5 0 h 0 min 0 1002.2 1013.7

1 Température minimale relevée entre 18:00 UTC la veille et 18:00 UTC le jour donné.

2 Température maximale relevée entre 06:00 UTC le jour donné et 06:00 UTC le lendemain.

3 Vent moyen de la journée basé sur les relevés horaires.

4 Ensoleillement en heures relevé entre 06:00 UTC la veille et 06:00 UTC le jour donné.

5 Précipitations totales tombées entre 06:00 UTC la jour donné et 06:00 UTC le lendemain.

Graphiques horaires